Las Cruces International Airport
KLRU : now visible

Airfield :











YOU CAN JOIN US ON...

 
LOGIN :

Register | Disclaimer

   EN    FR    IT 

 









Legend :    VFR   Marginal VFR   IFR   Intensive IFR   Very Intensive IFR
Visi :
Ceiling :
>= 8 km
>= 3000ft
5 to 8 km
1000 to 3000 ft
1500m to 5 km
500 to 1000 ft
800 to 1500m
200 to 500 ft
< 800m
< 200 ft
Symbols :   Thunderstorms  Fog  Heavy snow  Heavy precipitations  Wind > 20 kt







- Airport Elevation : 4456 ft
- IATA code : LRU


KLRU - Las Cruces International

CURRENT METAR :
  • 201555Z AUTO 22004KT 10SM CLR 25/14 A3006 RMK AO2 T02530139

EXPIRED METARs :
  • 201535Z AUTO 24005KT 10SM CLR 24/14 A3005 RMK AO2 T02420141
  • 201515Z AUTO 00000KT 10SM CLR 23/14 A3004 RMK AO2 T02320142
  • 201455Z AUTO 22003KT 10SM CLR 23/14 A3004 RMK AO2 T02250140
  • 201435Z AUTO 00000KT 10SM CLR 22/14 A3003 RMK AO2 T02170140
  • 201415Z AUTO 00000KT 10SM CLR 21/14 A3003 RMK AO2 T02070143
  • 201355Z AUTO 00000KT 10SM CLR 20/15 A3002 RMK AO2 T01960147
  • 201335Z AUTO 26003KT 10SM SCT100 20/15 A3001 RMK AO2 T01950145
  • 201315Z AUTO 13004KT 10SM BKN100 18/15 A3000 RMK AO2 T01830147

TAF KLRU
Valid from the 20 at 12:00 until the 21 at 12:00 UTC


201141Z 2012/2112 VRB05KT P6SM FEW100
FM201800 24010KT P6SM SCT080
No reported NOTAMs for that airfield.



MET'MAP, your aeronautical weather chart ! - Copyright ORBIFLY December 2007 - Disclaimer

ORBIFLY MET'MAP TEAM :

Programming & Development : Alexandra Zaïnal
Concept & Development : Baudouin d'Aumeries
Co-Development & Prog : Marc-Olivier Méhu
Technical & hardware support : Manuel Goepfert

Contact : metmap@orbifly.com




SOURCES & CREDITS :

   NOAA       Earth
Advisory